Time;durP1;ratioP1;P1;durP2;ratioP2;P2;SDS_P1;SDS_P2;PMS_P1;PMS_P2;Temp;Humidity;BMP_temperature;BMP_pressure;BME280_temperature;BME280_humidity;BME280_pressure;Samples;Min_cycle;Max_cycle;Signal;HPM_P1;HPM_P2
2023/01/28 00:01:55;;;;;;;2.93;2.73;;;;;;;5.70;51.49;98480.53;8447266;28;20436;-67
2023/01/28 00:06:04;;;;;;;3.00;2.80;;;;;;;5.71;52.46;98479.63;8447173;28;20235;-67
2023/01/28 00:10:08;;;;;;;2.60;2.40;;;;;;;5.68;52.39;98477.97;8446966;28;20223;-67
2023/01/28 00:14:11;;;;;;;2.97;2.77;;;;;;;5.49;53.27;98480.00;8446791;28;20226;-66
2023/01/28 00:18:13;;;;;;;3.70;3.40;;;;;;;5.54;53.95;98477.34;8446637;28;20480;-67
2023/01/28 00:22:18;;;;;;;3.40;3.07;;;;;;;5.57;54.47;98478.13;8446607;28;20250;-67
2023/01/28 00:26:22;;;;;;;3.30;3.10;;;;;;;5.56;54.31;98478.16;8446484;28;20546;-66
2023/01/28 00:30:25;;;;;;;3.83;3.53;;;;;;;5.75;54.08;98476.13;8446184;28;20289;-67
2023/01/28 00:34:27;;;;;;;4.47;4.07;;;;;;;5.55;53.88;98476.47;8445978;28;20228;-67
2023/01/28 00:38:32;;;;;;;3.80;3.50;;;;;;;5.66;54.41;98482.28;8446157;28;20549;-66
2023/01/28 00:42:36;;;;;;;3.80;3.40;;;;;;;5.52;54.27;98455.97;8445309;28;20246;-67
2023/01/28 00:46:40;;;;;;;4.20;3.80;;;;;;;5.59;54.71;98476.38;8445810;28;20249;-66
2023/01/28 00:50:44;;;;;;;4.50;4.10;;;;;;;5.32;55.47;98474.28;8445411;28;20514;-67
2023/01/28 00:54:48;;;;;;;4.77;4.27;;;;;;;5.38;55.30;98479.31;8445448;28;20231;-66
2023/01/28 00:58:51;;;;;;;4.00;3.70;;;;;;;5.60;54.99;98480.66;8445460;28;20407;-66
2023/01/28 01:02:54;;;;;;;4.40;3.90;;;;;;;5.36;55.68;98476.75;8445676;28;20250;-67
2023/01/28 01:06:57;;;;;;;4.37;3.97;;;;;;;5.66;54.71;98480.56;8445255;28;20258;-66
2023/01/28 01:11:01;;;;;;;4.33;4.03;;;;;;;5.40;54.92;98475.84;8445277;28;20226;-66
2023/01/28 01:15:09;;;;;;;4.67;4.27;;;;;;;5.45;54.38;98486.91;8445024;28;20237;-67
2023/01/28 01:19:11;;;;;;;4.57;4.17;;;;;;;5.60;54.73;98484.97;8445251;28;20223;-66
2023/01/28 01:23:14;;;;;;;5.30;4.20;;;;;;;5.72;54.14;98489.91;8445054;28;20231;-66
2023/01/28 01:27:18;;;;;;;4.50;4.10;;;;;;;5.73;53.91;98488.16;8445007;28;20227;-67
2023/01/28 01:31:22;;;;;;;4.43;4.03;;;;;;;5.75;53.96;98489.84;8444712;28;20243;-67
2023/01/28 01:35:25;;;;;;;4.00;3.70;;;;;;;5.75;53.89;98496.69;8444833;28;20231;-67
2023/01/28 01:39:27;;;;;;;4.40;4.00;;;;;;;5.61;54.12;98484.09;8444833;28;20509;-67
2023/01/28 01:43:48;;;;;;;4.40;3.93;;;;;;;5.79;53.65;98503.50;8444705;28;20223;-67
2023/01/28 01:47:56;;;;;;;4.53;4.13;;;;;;;5.72;53.81;98502.75;8444064;28;20235;-66
2023/01/28 01:52:03;;;;;;;4.83;4.43;;;;;;;5.81;53.76;98509.47;8444648;28;20490;-66
2023/01/28 01:56:08;;;;;;;5.07;4.67;;;;;;;5.74;54.03;98515.56;8450551;28;20227;-67
2023/01/28 02:00:12;;;;;;;5.10;4.60;;;;;;;5.82;53.87;98517.13;8451146;28;20246;-66
2023/01/28 02:04:20;;;;;;;5.10;4.60;;;;;;;5.75;53.65;98502.72;8451054;28;20284;-67
2023/01/28 02:08:24;;;;;;;4.50;4.10;;;;;;;5.77;53.79;98518.09;8450833;28;20557;-66
2023/01/28 02:12:29;;;;;;;5.70;5.10;;;;;;;5.63;53.71;98488.31;8450892;28;20242;-66
2023/01/28 02:16:33;;;;;;;5.63;5.13;;;;;;;5.83;53.59;98518.84;8450515;28;20227;-67
2023/01/28 02:20:50;;;;;;;6.93;6.20;;;;;;;5.72;53.68;98501.91;8450664;28;20333;-66
2023/01/28 02:25:12;;;;;;;7.23;6.53;;;;;;;5.47;53.83;98477.44;8450272;28;20560;-67
2023/01/28 02:29:21;;;;;;;7.47;6.77;;;;;;;5.71;53.28;98506.19;8450291;28;20227;-67
2023/01/28 02:33:30;;;;;;;7.27;6.50;;;;;;;5.77;53.36;98494.94;8449899;28;20231;-67
2023/01/28 02:37:38;;;;;;;7.43;6.40;;;;;;;5.93;53.31;98504.09;8449905;28;20568;-67
2023/01/28 02:41:46;;;;;;;8.00;7.17;;;;;;;5.82;53.49;98509.41;8449609;28;20222;-67
2023/01/28 02:50:09;;;;;;;8.70;7.80;;;;;;;5.66;53.97;98518.28;8405167;28;20523;-67
2023/01/28 02:54:15;;;;;;;8.93;8.03;;;;;;;5.79;53.21;98518.94;8449441;28;20239;-67
2023/01/28 02:58:23;;;;;;;9.87;8.83;;;;;;;5.77;53.14;98526.66;8449415;28;20529;-67
2023/01/28 03:02:31;;;;;;;10.93;8.67;;;;;;;5.69;53.54;98528.47;8449305;28;20231;-67
2023/01/28 03:06:37;;;;;;;10.33;8.67;;;;;;;5.67;52.71;98520.81;8448676;28;20232;-67
2023/01/28 03:10:40;;;;;;;10.00;8.80;;;;;;;5.73;53.48;98527.59;8448751;28;20231;-67
2023/01/28 03:36:52;;;;;;;11.20;9.27;;;;;;;5.46;53.98;98508.28;8448100;28;20231;-66
2023/01/28 03:40:57;;;;;;;9.40;8.40;;;;;;;5.62;54.05;98537.19;8447622;28;20227;-66
2023/01/28 03:45:02;;;;;;;10.73;8.80;;;;;;;5.68;54.13;98552.50;8448012;28;20685;-67
2023/01/28 03:49:05;;;;;;;9.37;8.37;;;;;;;5.60;54.58;98557.75;8447721;28;20224;-67
2023/01/28 03:53:14;;;;;;;9.70;8.67;;;;;;;5.82;54.44;98553.13;8447624;28;20230;-67
2023/01/28 03:57:20;;;;;;;10.53;8.77;;;;;;;5.76;54.47;98560.94;8447270;28;20280;-67
2023/01/28 04:01:23;;;;;;;10.23;9.10;;;;;;;5.74;54.86;98554.97;8447192;28;20414;-67
2023/01/28 04:05:26;;;;;;;11.37;9.70;;;;;;;5.45;55.15;98540.84;8447116;28;20231;-67
2023/01/28 04:09:30;;;;;;;10.57;9.47;;;;;;;5.73;54.48;98561.00;8447127;28;20503;-67
2023/01/28 04:13:33;;;;;;;10.43;9.33;;;;;;;5.70;54.96;98565.34;8446963;28;20219;-67
2023/01/28 04:17:36;;;;;;;11.70;10.50;;;;;;;5.66;55.18;98560.22;8445994;28;20231;-67
2023/01/28 04:21:39;;;;;;;12.10;10.57;;;;;;;5.65;55.38;98573.97;8446826;28;20238;-67
2023/01/28 04:25:43;;;;;;;12.90;11.20;;;;;;;5.48;55.16;98543.38;8446080;28;20250;-67
2023/01/28 04:29:46;;;;;;;14.60;11.07;;;;;;;5.61;55.59;98563.72;8446276;28;20234;-66
2023/01/28 04:33:48;;;;;;;12.80;11.17;;;;;;;5.72;55.03;98579.84;8446129;28;20695;-66
2023/01/28 04:37:51;;;;;;;11.83;10.43;;;;;;;5.47;55.90;98584.50;8446335;28;20228;-67
2023/01/28 04:41:55;;;;;;;12.47;10.83;;;;;;;5.69;55.24;98577.31;8445943;28;20242;-67
2023/01/28 04:45:58;;;;;;;15.07;11.70;;;;;;;5.58;55.46;98582.63;8446060;28;20232;-67
2023/01/28 04:50:01;;;;;;;13.73;11.43;;;;;;;5.41;55.62;98562.31;8445992;28;20235;-67
2023/01/28 04:54:04;;;;;;;13.27;10.83;;;;;;;5.74;55.23;98582.41;8445878;28;20416;-66
2023/01/28 04:58:08;;;;;;;12.70;10.90;;;;;;;5.61;55.45;98563.72;8445319;28;20246;-67
2023/01/28 05:02:11;;;;;;;13.43;12.07;;;;;;;5.78;55.06;98591.75;8445539;28;20223;-67
2023/01/28 05:06:14;;;;;;;12.43;10.77;;;;;;;5.76;55.19;98583.22;8445439;28;20311;-67
2023/01/28 05:10:17;;;;;;;12.63;11.30;;;;;;;5.64;55.48;98589.41;8445371;28;20234;-67
2023/01/28 05:14:21;;;;;;;12.90;11.50;;;;;;;5.60;55.28;98582.59;8445165;28;20230;-68
2023/01/28 05:18:23;;;;;;;13.03;11.27;;;;;;;5.67;55.42;98587.63;8445125;28;20227;-66
2023/01/28 05:22:26;;;;;;;12.67;10.93;;;;;;;5.73;55.16;98580.69;8445089;28;20227;-66
2023/01/28 05:26:29;;;;;;;12.77;10.93;;;;;;;5.73;55.31;98591.84;8444653;28;20227;-67
2023/01/28 05:30:33;;;;;;;13.20;11.47;;;;;;;5.67;55.45;98586.75;8445042;28;20223;-66
2023/01/28 05:34:36;;;;;;;12.23;10.80;;;;;;;5.70;55.03;98597.00;8444887;28;20527;-67
2023/01/28 05:38:39;;;;;;;13.13;11.40;;;;;;;5.55;56.02;98595.50;8444452;28;20425;-66
2023/01/28 05:42:41;;;;;;;13.33;11.30;;;;;;;5.75;55.48;98591.78;8444193;28;20238;-67
2023/01/28 05:46:46;;;;;;;14.13;11.73;;;;;;;5.72;55.22;98607.28;8444775;28;20224;-67
2023/01/28 05:50:49;;;;;;;12.03;10.43;;;;;;;5.66;55.53;98611.63;8444652;28;20696;-67
2023/01/28 05:54:51;;;;;;;14.57;9.90;;;;;;;5.82;55.40;98606.25;8444466;28;20230;-67
2023/01/28 05:58:54;;;;;;;13.13;9.93;;;;;;;5.79;55.08;98608.88;8444165;28;20227;-67
2023/01/28 06:02:59;;;;;;;10.80;9.70;;;;;;;5.78;55.19;98604.59;8444302;28;20250;-67
2023/01/28 06:07:02;;;;;;;10.30;9.20;;;;;;;5.75;55.30;98613.22;8444266;28;20407;-67
2023/01/28 06:11:05;;;;;;;9.50;8.50;;;;;;;5.75;55.73;98612.34;8444229;28;20226;-67
2023/01/28 06:15:09;;;;;;;13.57;12.07;;;;;;;5.69;55.45;98610.72;8444178;28;20229;-67
2023/01/28 06:19:14;;;;;;;10.63;9.53;;;;;;;5.75;55.55;98614.91;8444223;28;20224;-67
2023/01/28 06:23:17;;;;;;;10.13;8.70;;;;;;;5.75;55.87;98622.63;8443957;28;20259;-67
2023/01/28 06:27:20;;;;;;;10.07;8.80;;;;;;;5.81;55.61;98625.13;8444035;28;20231;-66
2023/01/28 06:31:22;;;;;;;9.77;8.50;;;;;;;5.66;56.17;98627.03;8443986;28;20354;-66
2023/01/28 06:35:26;;;;;;;12.03;9.33;;;;;;;5.60;56.17;98631.44;8443878;28;20235;-66
2023/01/28 06:39:30;;;;;;;10.00;8.93;;;;;;;5.65;56.23;98640.78;8445264;28;20568;-67
2023/01/28 06:43:33;;;;;;;9.63;8.47;;;;;;;5.68;56.20;98645.84;8449721;28;20223;-66
2023/01/28 06:47:36;;;;;;;9.63;8.33;;;;;;;5.68;55.78;98656.13;8449650;28;20307;-66
2023/01/28 06:51:40;;;;;;;9.57;8.57;;;;;;;5.66;56.37;98657.88;8449617;28;20226;-67
2023/01/28 06:55:43;;;;;;;10.13;8.53;;;;;;;5.75;56.31;98656.91;8448989;28;20547;-67
2023/01/28 06:59:46;;;;;;;11.13;9.73;;;;;;;5.59;56.42;98663.97;8449368;28;20421;-67
2023/01/28 07:03:49;;;;;;;12.43;8.70;;;;;;;5.49;56.86;98663.22;8449260;28;20237;-67
2023/01/28 07:07:53;;;;;;;10.07;8.47;;;;;;;5.61;56.40;98669.09;8448922;28;20231;-66
2023/01/28 07:11:56;;;;;;;10.43;9.33;;;;;;;5.55;57.42;98675.16;8448838;28;20231;-66
2023/01/28 07:15:59;;;;;;;11.60;9.23;;;;;;;5.52;57.92;98671.78;8448681;28;20243;-67
2023/01/28 07:20:02;;;;;;;13.33;10.13;;;;;;;5.54;57.42;98681.19;8448237;28;20546;-67
2023/01/28 07:24:06;;;;;;;12.63;10.43;;;;;;;5.68;57.45;98683.56;8448607;28;20230;-66
2023/01/28 07:28:09;;;;;;;13.93;10.43;;;;;;;5.56;57.56;98676.88;8448534;28;20239;-67
2023/01/28 07:32:12;;;;;;;12.37;10.53;;;;;;;5.63;57.43;98681.03;8448187;28;20235;-66
2023/01/28 07:36:15;;;;;;;13.13;10.40;;;;;;;5.73;57.34;98681.78;8448191;28;20237;-67
2023/01/28 07:40:20;;;;;;;12.10;10.50;;;;;;;5.72;56.91;98679.22;8448067;28;20504;-66
2023/01/28 07:44:23;;;;;;;12.50;9.80;;;;;;;5.56;57.51;98679.44;8447957;28;20224;-66
2023/01/28 07:48:26;;;;;;;11.67;10.47;;;;;;;5.63;57.39;98688.75;8447801;28;20235;-66
2023/01/28 07:52:29;;;;;;;10.97;9.23;;;;;;;5.57;57.58;98695.69;8447747;28;20219;-65
2023/01/28 07:56:33;;;;;;;11.27;9.63;;;;;;;5.73;57.40;98688.63;8447237;28;20227;-65
2023/01/28 08:00:37;;;;;;;10.73;9.43;;;;;;;5.60;56.66;98678.53;8447648;28;20224;-65
2023/01/28 08:04:40;;;;;;;9.43;8.20;;;;;;;5.64;56.94;98703.31;8447502;28;20298;-66
2023/01/28 08:08:43;;;;;;;9.10;8.13;;;;;;;5.65;56.88;98701.56;8446675;28;20428;-66
2023/01/28 08:12:54;;;;;;;9.33;8.30;;;;;;;5.74;56.13;98696.31;8447130;28;20231;-66
2023/01/28 08:16:57;;;;;;;8.60;7.60;;;;;;;5.78;56.50;98686.84;8446733;28;20235;-65
2023/01/28 08:21:00;;;;;;;9.67;7.83;;;;;;;5.86;56.18;98708.16;8446859;28;20243;-66
2023/01/28 08:25:03;;;;;;;9.40;7.80;;;;;;;6.04;55.75;98707.94;8446640;28;20227;-66
2023/01/28 08:29:07;;;;;;;7.60;6.80;;;;;;;6.04;55.72;98705.38;8446386;28;20318;-65
2023/01/28 08:33:12;;;;;;;8.87;7.50;;;;;;;5.99;55.22;98709.72;8445914;28;20423;-66
2023/01/28 08:37:15;;;;;;;8.57;7.23;;;;;;;6.07;55.22;98709.59;8446007;28;20520;-66
2023/01/28 08:41:17;;;;;;;7.63;5.90;;;;;;;5.84;55.36;98705.59;8445857;28;20429;-65
2023/01/28 08:45:24;;;;;;;6.60;5.87;;;;;;;6.07;54.43;98713.06;8446039;28;20227;-66
2023/01/28 08:49:29;;;;;;;5.47;4.97;;;;;;;5.81;54.37;98720.25;8445524;28;20235;-66
2023/01/28 08:53:32;;;;;;;5.40;4.10;;;;;;;5.99;53.69;98721.75;8445666;28;20222;-66
2023/01/28 08:57:35;;;;;;;4.10;3.70;;;;;;;5.78;54.37;98707.41;8445387;28;20227;-66
2023/01/28 09:01:39;;;;;;;3.50;3.20;;;;;;;5.80;53.24;98718.53;8445190;28;20232;-65
2023/01/28 09:05:42;;;;;;;3.63;3.33;;;;;;;5.85;53.53;98721.91;8444923;28;20302;-66
2023/01/28 09:09:45;;;;;;;4.40;2.87;;;;;;;5.98;53.33;98725.19;8445149;28;20224;-65
2023/01/28 09:13:48;;;;;;;3.60;3.30;;;;;;;6.07;53.00;98731.06;8445154;28;20307;-65
2023/01/28 09:17:57;;;;;;;3.20;2.63;;;;;;;5.59;53.21;98735.06;8445034;28;20241;-66
2023/01/28 09:22:00;;;;;;;2.80;2.60;;;;;;;5.51;52.25;98699.19;8445134;28;20416;-66
2023/01/28 09:26:04;;;;;;;3.17;2.87;;;;;;;5.79;52.29;98719.41;8444914;28;20223;-65
2023/01/28 09:30:09;;;;;;;2.53;2.10;;;;;;;5.55;52.31;98744.53;8444970;28;20231;-65
2023/01/28 09:34:13;;;;;;;2.63;2.17;;;;;;;5.83;51.65;98751.91;8444716;28;20230;-65
2023/01/28 09:38:16;;;;;;;2.20;2.00;;;;;;;5.66;52.33;98757.25;8444707;28;20224;-66
2023/01/28 09:42:43;;;;;;;2.47;2.03;;;;;;;5.95;51.44;98756.91;8444652;28;20230;-66
2023/01/28 09:46:46;;;;;;;2.70;1.90;;;;;;;5.77;51.22;98769.97;8444328;28;20398;-66
2023/01/28 09:50:51;;;;;;;1.50;1.40;;;;;;;5.78;50.78;98766.53;8444540;28;20524;-66
2023/01/28 09:54:58;;;;;;;2.50;2.17;;;;;;;6.01;50.77;98745.69;8444191;28;20231;-65
2023/01/28 09:59:11;;;;;;;1.70;1.47;;;;;;;5.81;50.23;98772.50;8444334;28;20252;-65
2023/01/28 10:03:32;;;;;;;2.10;1.60;;;;;;;6.06;50.10;98767.06;8444418;28;20219;-65
2023/01/28 10:07:43;;;;;;;1.33;1.30;;;;;;;6.21;49.31;98768.59;8444289;28;20239;-66
2023/01/28 10:11:58;;;;;;;1.20;1.10;;;;;;;5.83;49.28;98769.91;8443741;28;20243;-65
2023/01/28 10:16:08;;;;;;;1.60;1.50;;;;;;;6.11;49.21;98764.44;8448409;28;20578;-66
2023/01/28 10:20:19;;;;;;;2.33;1.20;;;;;;;6.21;48.34;98761.72;8450315;28;20228;-65
2023/01/28 10:24:26;;;;;;;0.90;0.90;;;;;;;5.84;48.53;98723.59;8450546;28;20419;-66
2023/01/28 10:28:31;;;;;;;1.40;1.30;;;;;;;6.06;48.27;98755.06;8450238;28;20223;-66
2023/01/28 10:32:36;;;;;;;1.20;1.10;;;;;;;6.36;48.59;98750.34;8450239;28;20227;-66
2023/01/28 10:36:39;;;;;;;3.23;2.17;;;;;;;6.22;47.94;98753.09;8450044;28;20257;-66
2023/01/28 10:40:46;;;;;;;3.67;3.37;;;;;;;6.68;47.55;98755.88;8449476;28;20235;-65
2023/01/28 10:44:49;;;;;;;3.07;1.40;;;;;;;6.37;47.19;98748.63;8449792;28;20538;-66
2023/01/28 10:49:00;;;;;;;2.20;1.70;;;;;;;6.59;47.35;98762.03;8449748;28;20535;-65
2023/01/28 10:53:04;;;;;;;2.40;2.20;;;;;;;6.24;47.84;98758.25;8449567;28;20338;-66
2023/01/28 10:57:13;;;;;;;2.77;2.40;;;;;;;6.16;47.87;98765.22;8449365;28;20238;-66
2023/01/28 11:01:16;;;;;;;2.30;1.80;;;;;;;6.12;47.83;98748.13;8449436;28;20227;-66
2023/01/28 11:05:21;;;;;;;2.10;1.90;;;;;;;5.90;48.58;98735.53;8449056;28;20251;-66
2023/01/28 11:09:25;;;;;;;3.93;3.30;;;;;;;5.91;48.71;98751.81;8448860;28;20228;-66
2023/01/28 11:13:30;;;;;;;6.43;5.50;;;;;;;6.09;48.50;98761.88;8449115;28;20238;-66
2023/01/28 11:17:35;;;;;;;18.80;13.50;;;;;;;6.16;48.52;98762.66;8448794;28;20536;-66
2023/01/28 11:21:38;;;;;;;17.73;12.30;;;;;;;6.08;47.47;98760.19;8448673;28;20251;-66
2023/01/28 11:25:41;;;;;;;2.80;2.20;;;;;;;6.57;47.78;98764.63;8447789;28;20216;-66
2023/01/28 11:29:45;;;;;;;1.90;1.80;;;;;;;6.00;47.95;98767.16;8448496;28;20227;-66
2023/01/28 11:33:50;;;;;;;5.23;2.90;;;;;;;6.52;47.44;98756.13;8447990;28;20503;-66
2023/01/28 11:37:53;;;;;;;2.60;2.40;;;;;;;6.23;47.52;98764.28;8448281;28;20230;-66
2023/01/28 11:42:04;;;;;;;2.37;2.17;;;;;;;5.97;48.43;98762.88;8448192;28;20235;-66
2023/01/28 11:46:21;;;;;;;4.70;3.40;;;;;;;5.81;47.81;98774.22;8447979;28;20414;-67
2023/01/28 11:50:32;;;;;;;3.50;3.17;;;;;;;6.13;47.65;98768.69;8447764;28;20436;-66
2023/01/28 11:54:43;;;;;;;3.03;2.60;;;;;;;6.24;47.84;98761.69;8447432;28;20531;-66
2023/01/28 11:58:53;;;;;;;6.03;4.13;;;;;;;6.21;47.83;98766.03;8447063;28;20223;-66
2023/01/28 12:03:05;;;;;;;2.27;1.97;;;;;;;6.39;47.11;98764.91;8447627;28;20227;-67
2023/01/28 12:07:16;;;;;;;2.37;2.17;;;;;;;5.95;47.44;98756.03;8447194;28;20232;-66
2023/01/28 12:12:10;;;;;;;3.00;2.80;;;;;;;5.70;48.49;98758.06;8447206;28;20223;-66
2023/01/28 12:16:06;;;;;;;2.97;2.70;;;;;;;6.26;47.63;98741.94;8446522;28;20219;-66
2023/01/28 12:20:17;;;;;;;4.20;3.17;;;;;;;6.24;47.30;98750.53;8446963;28;20249;-66
2023/01/28 12:24:28;;;;;;;3.27;2.80;;;;;;;6.05;48.12;98755.94;8446752;28;20224;-66
2023/01/28 12:28:43;;;;;;;2.87;2.67;;;;;;;6.07;48.40;98758.47;8446464;28;20564;-67
2023/01/28 12:33:01;;;;;;;4.90;4.10;;;;;;;6.21;48.18;98751.44;8445850;28;20233;-67
2023/01/28 12:37:08;;;;;;;5.00;3.80;;;;;;;5.91;49.36;98755.22;8445551;28;20227;-67
2023/01/28 12:41:14;;;;;;;5.37;3.97;;;;;;;5.58;49.41;98752.22;8446073;28;20234;-67
2023/01/28 12:45:20;;;;;;;4.73;4.23;;;;;;;5.93;49.65;98750.91;8446069;28;20526;-66
2023/01/28 12:49:25;;;;;;;4.57;3.60;;;;;;;5.84;49.11;98745.88;8445775;28;20550;-67
2023/01/28 12:53:35;;;;;;;4.53;2.90;;;;;;;5.79;48.92;98742.53;8445925;28;20319;-67
2023/01/28 12:57:38;;;;;;;2.70;2.30;;;;;;;5.42;49.59;98737.84;8445548;28;20230;-67
2023/01/28 13:01:42;;;;;;;3.33;3.00;;;;;;;5.59;48.57;98707.66;8445811;28;20230;-67
2023/01/28 13:05:50;;;;;;;4.43;3.03;;;;;;;5.73;48.90;98727.19;8444954;28;20298;-67
2023/01/28 13:10:02;;;;;;;2.10;2.00;;;;;;;5.86;47.95;98747.59;8445481;28;20238;-67
2023/01/28 13:14:05;;;;;;;2.30;2.10;;;;;;;5.75;49.06;98746.00;8445409;28;20535;-67
2023/01/28 13:18:07;;;;;;;3.30;3.00;;;;;;;5.87;48.32;98746.69;8445037;28;20235;-66
2023/01/28 13:22:13;;;;;;;2.80;2.50;;;;;;;5.62;47.92;98733.31;8445073;28;20428;-66
2023/01/28 13:26:42;;;;;;;3.90;3.50;;;;;;;5.78;48.07;98757.09;8445084;28;20286;-66
2023/01/28 13:30:49;;;;;;;3.10;2.53;;;;;;;6.06;47.56;98757.63;8441826;28;20284;-67
2023/01/28 13:34:58;;;;;;;5.77;4.30;;;;;;;6.00;47.50;98757.72;8444605;28;20236;-67
2023/01/28 13:39:02;;;;;;;3.70;2.90;;;;;;;6.02;48.04;98768.84;8444711;28;20227;-67
2023/01/28 13:43:26;;;;;;;4.10;3.70;;;;;;;5.84;47.34;98761.31;8444825;28;20390;-67
2023/01/28 13:47:31;;;;;;;3.50;3.20;;;;;;;5.96;47.49;98757.75;8444663;28;20227;-67
2023/01/28 13:51:35;;;;;;;5.37;3.70;;;;;;;5.96;47.64;98762.91;8451771;28;20238;-66
2023/01/28 13:55:39;;;;;;;3.23;2.80;;;;;;;6.00;47.65;98777.44;8451503;28;20294;-67
2023/01/28 13:59:54;;;;;;;3.00;2.40;;;;;;;5.78;47.82;98779.38;8450889;28;20503;-67
2023/01/28 14:04:21;;;;;;;9.63;5.97;;;;;;;5.67;48.06;98782.06;8450709;28;20237;-67
2023/01/28 14:08:51;;;;;;;5.27;3.30;;;;;;;5.69;47.76;98780.34;8449486;28;20382;-67
2023/01/28 14:13:10;;;;;;;4.77;3.73;;;;;;;6.14;47.68;98793.53;8448183;28;20220;-67
2023/01/28 14:17:20;;;;;;;5.93;4.67;;;;;;;5.96;47.52;98798.91;8450735;28;20230;-67
2023/01/28 14:21:22;;;;;;;4.77;3.93;;;;;;;5.26;48.48;98755.13;8450690;28;20224;-67
2023/01/28 14:25:30;;;;;;;6.27;3.57;;;;;;;5.60;47.86;98796.72;8450372;28;20224;-66
2023/01/28 14:29:43;;;;;;;4.57;4.00;;;;;;;5.50;48.33;98810.53;8450477;28;20531;-66
2023/01/28 14:33:47;;;;;;;4.70;4.07;;;;;;;5.84;47.63;98813.56;8449855;28;20231;-66
2023/01/28 14:37:51;;;;;;;4.77;3.97;;;;;;;5.36;47.82;98814.97;8450061;28;20229;-66
2023/01/28 14:41:55;;;;;;;3.10;2.90;;;;;;;5.43;47.92;98822.59;8450058;28;20231;-65
2023/01/28 14:46:07;;;;;;;3.13;2.83;;;;;;;5.39;47.99;98826.06;8450046;28;20555;-66
2023/01/28 14:50:25;;;;;;;3.07;2.83;;;;;;;5.07;47.70;98818.66;8450011;28;20227;-65
2023/01/28 14:54:47;;;;;;;3.13;2.83;;;;;;;4.96;47.79;98811.03;8449684;28;20227;-65
2023/01/28 14:58:52;;;;;;;2.83;2.63;;;;;;;5.27;47.35;98833.88;8449087;28;20227;-66
2023/01/28 15:02:55;;;;;;;4.33;2.63;;;;;;;5.22;46.63;98830.50;8448693;28;20415;-66
2023/01/28 15:07:12;;;;;;;3.30;2.43;;;;;;;5.27;46.97;98834.75;8449144;28;20299;-66
2023/01/28 15:11:18;;;;;;;3.67;2.50;;;;;;;5.11;46.39;98816.91;8449057;28;20233;-66
2023/01/28 15:15:29;;;;;;;2.80;2.33;;;;;;;4.87;46.69;98827.38;8448945;28;20251;-65
2023/01/28 15:19:34;;;;;;;3.83;2.80;;;;;;;5.16;47.11;98856.22;8448759;28;20235;-65
2023/01/28 15:23:39;;;;;;;2.63;2.43;;;;;;;5.24;46.80;98855.31;8448500;28;20536;-65
2023/01/28 15:27:42;;;;;;;3.23;2.93;;;;;;;5.23;46.24;98851.03;8447942;28;20228;-65
2023/01/28 15:31:48;;;;;;;4.53;2.87;;;;;;;5.20;45.64;98857.94;8448374;28;20235;-66
2023/01/28 15:35:52;;;;;;;2.87;2.60;;;;;;;5.43;45.72;98863.69;8448544;28;20238;-65
2023/01/28 15:40:07;;;;;;;2.70;2.37;;;;;;;5.17;45.33;98871.63;8448060;28;20239;-65
2023/01/28 15:44:17;;;;;;;4.83;3.30;;;;;;;4.76;45.75;98813.78;8448238;28;20218;-65
2023/01/28 15:48:20;;;;;;;3.03;2.53;;;;;;;5.26;45.96;98874.13;8448010;28;20224;-66
2023/01/28 15:52:29;;;;;;;4.73;3.60;;;;;;;5.14;45.13;98856.25;8447755;28;20228;-66
2023/01/28 15:56:34;;;;;;;2.97;2.57;;;;;;;5.26;45.27;98888.69;8447283;28;20229;-66
2023/01/28 16:00:37;;;;;;;2.80;2.33;;;;;;;5.26;45.13;98893.81;8447224;28;20223;-66
2023/01/28 16:04:40;;;;;;;4.70;3.20;;;;;;;5.26;45.26;98888.69;8447564;28;20289;-65
2023/01/28 16:08:47;;;;;;;4.03;3.50;;;;;;;5.13;45.15;98892.22;8446581;28;20235;-66
2023/01/28 16:12:52;;;;;;;3.83;3.07;;;;;;;5.11;45.12;98894.78;8445566;28;20241;-66
2023/01/28 16:16:56;;;;;;;3.10;2.80;;;;;;;5.16;44.79;98887.03;8447041;28;20300;-66
2023/01/28 16:20:59;;;;;;;4.53;3.10;;;;;;;5.12;45.08;98890.50;8446866;28;20239;-65
2023/01/28 16:25:04;;;;;;;3.17;2.20;;;;;;;5.08;45.44;98889.66;8446697;28;20232;-66
2023/01/28 16:29:14;;;;;;;5.73;3.83;;;;;;;5.14;44.96;98894.78;8446391;28;20238;-66
2023/01/28 16:33:19;;;;;;;3.37;3.07;;;;;;;5.05;45.85;98887.97;8446409;28;20227;-65
2023/01/28 16:37:22;;;;;;;3.93;3.50;;;;;;;5.19;45.35;98887.03;8446374;28;20258;-65
2023/01/28 16:41:26;;;;;;;3.27;2.70;;;;;;;5.05;45.50;98875.16;8445957;28;20229;-65
2023/01/28 16:45:30;;;;;;;2.67;2.47;;;;;;;5.32;45.38;98874.94;8446204;28;20617;-65
2023/01/28 16:49:33;;;;;;;3.27;2.60;;;;;;;4.87;45.49;98888.97;8446131;28;20228;-66
2023/01/28 16:53:38;;;;;;;3.73;2.60;;;;;;;5.04;45.24;98881.13;8445550;28;20232;-65
2023/01/28 16:57:41;;;;;;;2.70;2.50;;;;;;;5.10;45.63;98895.63;8445739;28;20230;-65
2023/01/28 17:01:45;;;;;;;5.53;3.70;;;;;;;4.94;45.82;98887.19;8445063;28;20225;-65
2023/01/28 17:05:48;;;;;;;6.17;3.33;;;;;;;4.78;46.29;98886.47;8445327;28;20228;-65
2023/01/28 17:09:51;;;;;;;3.60;3.30;;;;;;;4.77;46.09;98883.91;8445000;28;20246;-66
2023/01/28 17:13:54;;;;;;;4.00;3.70;;;;;;;5.05;46.29;98879.44;8445100;28;20227;-65
2023/01/28 17:17:58;;;;;;;4.53;3.60;;;;;;;5.04;45.82;98888.81;8444954;28;20236;-65
2023/01/28 17:22:00;;;;;;;5.27;3.50;;;;;;;4.84;45.97;98903.53;8444944;28;20231;-66
2023/01/28 17:26:04;;;;;;;4.40;3.50;;;;;;;4.68;46.36;98883.09;8444762;28;20242;-65
2023/01/28 17:30:08;;;;;;;6.73;5.57;;;;;;;4.67;46.28;98908.75;8445039;28;20223;-66
2023/01/28 17:34:12;;;;;;;9.47;5.87;;;;;;;4.51;46.72;98920.81;8444539;28;20230;-66
2023/01/28 17:38:16;;;;;;;5.70;3.73;;;;;;;4.81;45.97;98917.22;8444708;28;20301;-66
2023/01/28 17:42:19;;;;;;;3.83;3.30;;;;;;;4.73;46.53;98911.28;8444554;28;20243;-65
2023/01/28 17:46:24;;;;;;;9.13;6.40;;;;;;;4.77;45.92;98919.81;8444503;28;20230;-65
2023/01/28 17:50:28;;;;;;;4.20;3.80;;;;;;;4.91;45.75;98918.00;8444531;28;20223;-66
2023/01/28 17:54:33;;;;;;;4.47;3.30;;;;;;;4.78;46.33;98909.56;8444432;28;20426;-66
2023/01/28 17:58:35;;;;;;;4.43;3.97;;;;;;;4.15;46.30;98862.84;8444599;28;20422;-65
2023/01/28 18:02:38;;;;;;;3.57;3.27;;;;;;;4.87;45.92;98919.78;8444550;28;20232;-65
2023/01/28 18:06:43;;;;;;;7.43;4.53;;;;;;;4.78;46.27;98919.81;8443926;28;20422;-65
2023/01/28 18:10:46;;;;;;;5.00;3.93;;;;;;;4.73;45.47;98913.84;8444409;28;20251;-66
2023/01/28 18:14:49;;;;;;;4.50;4.07;;;;;;;5.03;45.71;98935.91;8444357;28;20539;-66
2023/01/28 18:18:52;;;;;;;4.60;3.27;;;;;;;4.69;45.87;98928.41;8444173;28;20227;-66
2023/01/28 18:22:56;;;;;;;4.07;3.67;;;;;;;4.96;45.29;98943.69;8443961;28;20228;-65
2023/01/28 18:26:59;;;;;;;3.00;2.70;;;;;;;4.42;45.39;98956.78;8444091;28;20523;-65
2023/01/28 18:31:05;;;;;;;5.27;4.13;;;;;;;4.55;45.83;98966.13;8443924;28;20526;-66
2023/01/28 18:35:08;;;;;;;5.37;3.30;;;;;;;4.41;45.60;98960.19;8444717;28;20223;-66
2023/01/28 18:39:16;;;;;;;3.63;3.33;;;;;;;4.28;45.56;98955.13;8450124;28;20219;-65
2023/01/28 18:43:18;;;;;;;4.40;4.10;;;;;;;4.49;45.62;98964.44;8449985;28;20567;-66
2023/01/28 18:47:21;;;;;;;4.33;3.60;;;;;;;4.55;45.00;98970.38;8450166;28;20234;-65
2023/01/28 18:51:24;;;;;;;4.00;3.60;;;;;;;4.56;45.29;98969.53;8450029;28;20542;-66
2023/01/28 18:55:34;;;;;;;3.60;3.30;;;;;;;4.76;45.43;98972.00;8449550;28;20329;-66
2023/01/28 18:59:36;;;;;;;3.83;3.40;;;;;;;4.38;45.73;98958.50;8449542;28;20227;-66
2023/01/28 19:03:39;;;;;;;4.33;3.93;;;;;;;4.33;45.17;98980.72;8449612;28;20231;-65
2023/01/28 19:07:42;;;;;;;3.67;3.17;;;;;;;4.49;44.95;98984.97;8448830;28;20223;-66
2023/01/28 19:11:47;;;;;;;3.83;3.47;;;;;;;4.46;44.96;98990.09;8449377;28;20234;-65
2023/01/28 19:15:49;;;;;;;3.87;3.57;;;;;;;4.57;44.55;98990.06;8449083;28;20223;-66
2023/01/28 19:19:52;;;;;;;6.07;3.40;;;;;;;4.54;44.42;98974.66;8448726;28;20239;-66
2023/01/28 19:23:56;;;;;;;6.40;5.80;;;;;;;4.54;44.17;98981.53;8448765;28;20231;-65
2023/01/28 19:28:01;;;;;;;9.90;7.10;;;;;;;4.81;44.11;98978.81;8448602;28;20228;-66
2023/01/28 19:32:04;;;;;;;6.13;4.80;;;;;;;4.64;44.34;98983.19;8448511;28;20224;-65
2023/01/28 19:36:08;;;;;;;6.33;5.63;;;;;;;4.70;44.46;98981.47;8448482;28;20285;-65
2023/01/28 19:40:12;;;;;;;7.13;6.20;;;;;;;4.07;44.65;98875.69;8448277;28;20522;-66
2023/01/28 19:44:17;;;;;;;10.77;9.17;;;;;;;4.72;44.37;98973.72;8448304;28;20228;-66
2023/01/28 19:48:19;;;;;;;5.77;5.10;;;;;;;4.76;44.24;98982.25;8447873;28;20235;-66
2023/01/28 19:52:22;;;;;;;7.17;6.47;;;;;;;4.90;44.27;98990.75;8447653;28;20224;-66